Time;durP1;ratioP1;P1;durP2;ratioP2;P2;SDS_P1;SDS_P2;PMS_P1;PMS_P2;Temp;Humidity;BMP_temperature;BMP_pressure;BME280_temperature;BME280_humidity;BME280_pressure;Samples;Min_cycle;Max_cycle;Signal;HPM_P1;HPM_P2
2023/10/09 00:01:15;;;;;;;36.53;18.27;;;14.20;99.90;;;;;;4974929;28;20260;-71
2023/10/09 00:03:44;;;;;;;36.10;18.13;;;14.20;99.90;;;;;;4974551;28;20209;-70
2023/10/09 00:06:13;;;;;;;34.03;17.37;;;14.20;99.90;;;;;;4974612;28;20182;-71
2023/10/09 00:08:39;;;;;;;40.40;18.60;;;14.20;99.90;;;;;;4974849;28;20177;-70
2023/10/09 00:11:18;;;;;;;36.57;17.37;;;14.20;99.90;;;;;;4974690;28;20232;-70
2023/10/09 00:13:52;;;;;;;40.47;18.27;;;14.20;99.90;;;;;;4974596;28;20696;-71
2023/10/09 00:16:32;;;;;;;32.43;17.33;;;14.20;99.90;;;;;;4974372;28;20193;-71
2023/10/09 00:19:13;;;;;;;40.83;18.73;;;14.20;99.90;;;;;;4974477;28;20244;-71
2023/10/09 00:21:41;;;;;;;32.50;17.83;;;14.10;99.90;;;;;;4974517;28;20200;-71
2023/10/09 00:24:13;;;;;;;32.10;17.60;;;14.10;99.90;;;;;;4974325;28;20173;-71
2023/10/09 00:26:48;;;;;;;39.97;18.43;;;14.10;99.90;;;;;;4974583;28;20634;-71
2023/10/09 00:29:23;;;;;;;28.73;17.17;;;14.10;99.90;;;;;;4974409;28;20173;-71
2023/10/09 00:32:05;;;;;;;36.27;18.13;;;14.00;99.90;;;;;;4974160;28;20192;-71
2023/10/09 00:34:39;;;;;;;33.57;17.30;;;13.90;99.90;;;;;;4974233;28;20189;-70
2023/10/09 00:37:10;;;;;;;35.47;17.50;;;13.80;99.90;;;;;;4973421;28;20220;-70
2023/10/09 00:42:03;;;;;;;35.00;17.43;;;13.70;99.90;;;;;;4973978;28;20292;-71
2023/10/09 00:44:38;;;;;;;32.73;17.27;;;13.70;99.90;;;;;;4973701;28;20188;-70
2023/10/09 00:47:26;;;;;;;37.70;18.03;;;13.60;99.90;;;;;;4973592;28;20192;-71
2023/10/09 00:50:08;;;;;;;33.60;17.33;;;13.50;99.90;;;;;;4973624;28;20198;-70
2023/10/09 00:52:42;;;;;;;32.23;17.10;;;13.50;99.90;;;;;;4973884;28;20716;-71
2023/10/09 00:55:20;;;;;;;37.90;17.43;;;13.50;99.90;;;;;;4973921;28;20304;-70
2023/10/09 00:57:57;;;;;;;28.90;16.97;;;13.40;99.90;;;;;;4974081;28;20174;-71
2023/10/09 01:00:32;;;;;;;31.17;17.63;;;13.40;99.90;;;;;;4973809;28;20627;-71
2023/10/09 01:11:30;;;;;;;34.77;16.77;;;13.50;99.90;;;;;;4973858;28;20539;-70
2023/10/09 01:14:21;;;;;;;31.90;17.20;;;13.50;99.90;;;;;;4973021;28;20666;-70
2023/10/09 01:16:43;;;;;;;28.27;15.33;;;13.60;99.90;;;;;;4972948;28;20193;-70
2023/10/09 01:19:24;;;;;;;34.67;17.17;;;13.60;99.90;;;;;;4973527;28;20568;-70
2023/10/09 01:21:53;;;;;;;30.27;15.77;;;13.60;99.90;;;;;;4973372;28;20196;-71
2023/10/09 01:24:19;;;;;;;28.47;15.57;;;13.60;99.90;;;;;;4973094;28;20170;-69
2023/10/09 01:26:46;;;;;;;32.57;16.27;;;13.70;99.90;;;;;;4973284;28;20170;-70
2023/10/09 01:29:19;;;;;;;32.20;15.80;;;13.70;99.90;;;;;;4973139;28;20172;-71
2023/10/09 01:32:00;;;;;;;38.80;16.27;;;13.80;99.90;;;;;;4973014;28;20178;-70
2023/10/09 01:34:43;;;;;;;28.50;14.70;;;13.80;99.90;;;;;;4973083;28;20216;-71
2023/10/09 01:37:22;;;;;;;26.43;15.13;;;13.80;99.90;;;;;;4973320;28;20224;-70
2023/10/09 01:39:50;;;;;;;26.03;14.43;;;13.80;99.90;;;;;;4973240;28;20185;-70
2023/10/09 01:42:44;;;;;;;25.20;14.20;;;13.90;99.90;;;;;;4972673;28;20517;-71
2023/10/09 01:45:11;;;;;;;26.13;13.67;;;13.90;99.90;;;;;;4972637;28;20247;-70
2023/10/09 01:47:39;;;;;;;23.67;14.10;;;14.00;99.90;;;;;;4972947;28;20200;-70
2023/10/09 01:50:11;;;;;;;24.23;13.57;;;14.00;99.90;;;;;;4972941;28;20213;-71
2023/10/09 01:52:37;;;;;;;25.53;12.90;;;14.00;99.90;;;;;;4972803;28;20189;-70
2023/10/09 01:55:27;;;;;;;22.63;13.80;;;14.10;99.90;;;;;;4972738;28;20185;-70
2023/10/09 01:57:49;;;;;;;22.40;13.53;;;14.10;99.90;;;;;;4972841;28;20617;-70
2023/10/09 02:00:22;;;;;;;19.13;12.67;;;14.10;99.90;;;;;;4972356;28;20288;-69
2023/10/09 02:02:50;;;;;;;17.87;12.17;;;14.20;99.90;;;;;;4972632;28;20280;-69
2023/10/09 02:08:02;;;;;;;19.50;12.87;;;14.30;99.90;;;;;;4972629;28;20264;-69
2023/10/09 02:12:57;;;;;;;19.07;11.97;;;14.20;99.90;;;;;;4972557;28;20173;-70
2023/10/09 02:15:51;;;;;;;16.43;10.57;;;14.20;99.90;;;;;;4972165;28;20184;-70
2023/10/09 02:21:04;;;;;;;21.30;11.43;;;14.20;99.90;;;;;;4972679;28;20189;-69
2023/10/09 02:26:05;;;;;;;18.37;11.47;;;14.20;99.90;;;;;;4972856;28;20174;-69
2023/10/09 02:28:33;;;;;;;19.97;11.63;;;14.20;99.90;;;;;;4971810;28;20557;-69
2023/10/09 02:31:00;;;;;;;16.07;11.40;;;14.20;99.90;;;;;;4972592;28;20197;-69
2023/10/09 02:33:32;;;;;;;17.47;10.33;;;14.20;99.90;;;;;;4972509;28;20173;-70
2023/10/09 02:36:04;;;;;;;16.90;11.40;;;14.30;99.90;;;;;;4972472;28;20247;-69
2023/10/09 02:38:35;;;;;;;16.93;11.43;;;14.30;99.90;;;;;;4972638;28;20178;-70
2023/10/09 02:43:44;;;;;;;16.20;11.30;;;14.30;99.90;;;;;;4972546;28;20523;-70
2023/10/09 02:46:17;;;;;;;18.70;11.03;;;14.30;99.90;;;;;;4972114;28;20204;-70
2023/10/09 02:48:45;;;;;;;17.63;10.70;;;14.30;99.90;;;;;;4972807;28;20580;-70
2023/10/09 02:51:21;;;;;;;18.50;11.40;;;14.30;99.90;;;;;;4971216;28;20297;-70
2023/10/09 02:53:49;;;;;;;16.00;11.27;;;14.30;99.90;;;;;;4972361;28;20173;-71
2023/10/09 02:56:17;;;;;;;21.47;12.90;;;14.30;99.90;;;;;;4972077;28;20182;-70
2023/10/09 02:58:43;;;;;;;17.03;11.10;;;14.30;99.90;;;;;;4972465;28;20170;-70
2023/10/09 03:01:15;;;;;;;18.57;11.13;;;14.30;99.90;;;;;;4974565;28;20284;-70
2023/10/09 03:03:48;;;;;;;16.90;11.60;;;14.30;99.90;;;;;;4975735;28;20188;-70
2023/10/09 03:06:19;;;;;;;18.80;10.93;;;14.30;99.90;;;;;;4976084;28;20594;-71
2023/10/09 03:08:47;;;;;;;17.47;10.77;;;14.20;99.90;;;;;;4976312;28;20169;-69
2023/10/09 03:11:13;;;;;;;17.57;12.20;;;14.30;99.90;;;;;;4975783;28;20204;-70
2023/10/09 03:13:47;;;;;;;19.27;12.20;;;14.30;99.90;;;;;;4975717;28;20228;-70
2023/10/09 03:16:16;;;;;;;19.60;11.43;;;14.30;99.90;;;;;;4976111;28;20216;-70
2023/10/09 03:18:41;;;;;;;19.20;11.47;;;14.30;99.90;;;;;;4975708;28;20185;-70
2023/10/09 03:21:08;;;;;;;17.57;10.47;;;14.30;99.90;;;;;;4975827;28;20264;-70
2023/10/09 03:23:34;;;;;;;14.40;10.73;;;14.30;99.90;;;;;;4975503;28;20181;-71
2023/10/09 03:26:00;;;;;;;14.23;10.40;;;14.40;99.90;;;;;;4975824;28;20182;-70
2023/10/09 03:28:26;;;;;;;13.70;10.37;;;14.50;99.90;;;;;;4976070;28;20177;-71
2023/10/09 03:30:53;;;;;;;14.60;11.67;;;14.70;99.90;;;;;;4975694;28;20252;-70
2023/10/09 03:33:18;;;;;;;14.50;10.53;;;14.80;99.90;;;;;;4975120;28;20289;-70
2023/10/09 03:35:44;;;;;;;15.03;9.83;;;15.00;99.90;;;;;;4975612;28;20173;-71
2023/10/09 03:38:17;;;;;;;14.37;10.30;;;15.10;99.90;;;;;;4975085;28;20178;-71
2023/10/09 03:40:47;;;;;;;14.43;10.40;;;15.10;99.90;;;;;;4975303;28;20209;-71
2023/10/09 03:43:14;;;;;;;18.37;11.13;;;15.30;99.90;;;;;;4975041;28;20174;-71
2023/10/09 03:45:52;;;;;;;16.10;10.37;;;15.40;99.90;;;;;;4975379;28;20174;-70
2023/10/09 03:48:32;;;;;;;14.17;10.03;;;15.40;99.90;;;;;;4975346;28;20217;-71
2023/10/09 03:51:12;;;;;;;15.87;9.97;;;15.50;99.90;;;;;;4975398;28;20193;-71
2023/10/09 03:53:42;;;;;;;17.43;9.43;;;15.60;99.90;;;;;;4975003;28;20204;-70
2023/10/09 03:56:17;;;;;;;14.20;10.40;;;15.80;99.90;;;;;;4975032;28;20169;-71
2023/10/09 03:58:45;;;;;;;11.70;8.80;;;15.80;99.90;;;;;;4975151;28;20178;-70
2023/10/09 04:01:28;;;;;;;11.47;8.30;;;15.90;99.90;;;;;;4974762;28;20216;-71
2023/10/09 04:04:03;;;;;;;15.47;9.03;;;16.00;99.90;;;;;;4974971;28;20181;-71
2023/10/09 04:06:32;;;;;;;12.00;8.30;;;16.10;99.90;;;;;;4974982;28;20165;-71
2023/10/09 04:11:49;;;;;;;11.40;8.43;;;16.20;99.90;;;;;;4973605;28;20181;-71
2023/10/09 04:14:31;;;;;;;10.07;7.90;;;16.30;99.90;;;;;;4974174;28;20278;-70
2023/10/09 04:17:05;;;;;;;11.07;7.60;;;16.30;99.90;;;;;;4974898;28;20177;-70
2023/10/09 04:19:38;;;;;;;11.67;7.87;;;16.30;99.90;;;;;;4974863;28;20189;-70
2023/10/09 04:22:07;;;;;;;10.57;7.33;;;16.40;99.90;;;;;;4974637;28;20223;-70
2023/10/09 04:24:41;;;;;;;9.97;6.97;;;16.40;99.90;;;;;;4974452;28;20637;-70
2023/10/09 04:27:08;;;;;;;12.50;8.23;;;16.50;99.90;;;;;;4974658;28;20173;-70
2023/10/09 04:29:46;;;;;;;10.90;7.20;;;16.50;99.90;;;;;;4974251;28;20658;-70
2023/10/09 04:32:15;;;;;;;10.67;7.23;;;16.50;99.90;;;;;;4973144;28;20184;-70
2023/10/09 04:35:19;;;;;;;13.53;7.77;;;16.50;99.90;;;;;;4974360;28;20180;-71
2023/10/09 04:37:39;;;;;;;10.43;7.30;;;16.60;99.90;;;;;;4960266;28;20177;-70
2023/10/09 04:40:41;;;;;;;12.10;7.10;;;16.60;99.90;;;;;;4974107;28;20205;-70
2023/10/09 04:42:59;;;;;;;10.70;7.13;;;16.60;99.90;;;;;;4974147;28;20212;-71
2023/10/09 04:48:10;;;;;;;8.50;6.30;;;16.70;99.90;;;;;;4974216;28;20182;-71
2023/10/09 04:50:45;;;;;;;13.33;7.27;;;16.70;99.90;;;;;;4974216;28;20197;-70
2023/10/09 04:55:44;;;;;;;11.73;6.50;;;16.70;99.90;;;;;;4974095;28;20181;-70
2023/10/09 04:58:23;;;;;;;12.10;7.87;;;16.70;99.90;;;;;;4973897;28;20228;-70
2023/10/09 05:01:12;;;;;;;12.53;6.83;;;16.80;99.90;;;;;;4973734;28;20634;-71
2023/10/09 05:06:21;;;;;;;9.83;6.93;;;16.80;99.90;;;;;;4973945;28;20166;-70
2023/10/09 05:08:54;;;;;;;11.63;6.73;;;16.80;99.90;;;;;;4972530;28;20228;-70
2023/10/09 05:12:09;;;;;;;12.77;7.17;;;16.80;99.90;;;;;;4973747;28;20193;-71
2023/10/09 05:14:11;;;;;;;9.53;7.00;;;16.70;99.90;;;;;;4969816;28;20189;-70
2023/10/09 05:16:44;;;;;;;12.27;7.17;;;16.70;99.90;;;;;;4973963;28;20259;-70
2023/10/09 05:19:28;;;;;;;9.73;6.27;;;16.70;99.90;;;;;;4973694;28;20220;-71
2023/10/09 05:21:58;;;;;;;11.80;7.03;;;16.70;99.90;;;;;;4973623;28;20645;-70
2023/10/09 05:24:26;;;;;;;10.60;6.97;;;16.70;99.90;;;;;;4972928;28;20525;-70
2023/10/09 05:26:52;;;;;;;8.90;6.27;;;16.60;99.90;;;;;;4973629;28;20713;-70
2023/10/09 05:29:19;;;;;;;8.97;7.63;;;16.60;99.90;;;;;;4973209;28;20252;-70
2023/10/09 05:34:34;;;;;;;10.20;7.00;;;16.60;99.90;;;;;;4973374;28;20285;-70
2023/10/09 05:42:43;;;;;;;12.13;7.77;;;16.50;99.90;;;;;;4972861;28;20224;-70
2023/10/09 05:48:04;;;;;;;30.30;8.70;;;16.50;99.90;;;;;;4973340;28;20185;-70
2023/10/09 05:51:10;;;;;;;11.90;7.83;;;16.60;99.90;;;;;;4972476;28;20193;-70
2023/10/09 06:04:15;;;;;;;13.27;7.67;;;16.70;99.90;;;;;;4970833;28;20180;-70
2023/10/09 06:06:45;;;;;;;11.07;7.70;;;16.70;99.90;;;;;;4972673;28;20301;-70
2023/10/09 06:11:39;;;;;;;11.60;7.73;;;16.70;99.90;;;;;;4972645;28;20205;-70
2023/10/09 06:24:18;;;;;;;12.37;7.70;;;16.80;99.90;;;;;;4972533;28;20177;-71
2023/10/09 06:29:37;;;;;;;13.67;7.27;;;16.90;99.90;;;;;;4972580;28;20173;-70
2023/10/09 06:32:34;;;;;;;9.17;7.20;;;17.00;99.90;;;;;;4972644;28;20628;-71
2023/10/09 06:35:16;;;;;;;9.90;7.40;;;17.00;99.90;;;;;;4972871;28;20585;-70
2023/10/09 06:43:36;;;;;;;9.67;6.20;;;17.20;99.90;;;;;;4976203;28;20166;-70
2023/10/09 06:48:55;;;;;;;9.00;7.13;;;17.20;99.90;;;;;;4976068;28;20317;-71
2023/10/09 07:01:45;;;;;;;10.87;7.17;;;17.50;99.90;;;;;;4975906;28;20209;-71
2023/10/09 07:06:56;;;;;;;11.80;7.07;;;17.50;99.90;;;;;;4976378;28;20188;-70
2023/10/09 07:09:22;;;;;;;9.40;6.90;;;17.50;99.90;;;;;;4975947;28;20257;-70
2023/10/09 07:17:15;;;;;;;15.83;7.70;;;17.60;99.90;;;;;;4975987;28;20191;-70
2023/10/09 07:22:29;;;;;;;11.97;7.57;;;17.50;99.90;;;;;;4975636;28;20208;-70
2023/10/09 07:25:13;;;;;;;11.20;7.80;;;17.50;99.90;;;;;;4975531;28;20181;-70
2023/10/09 07:27:46;;;;;;;10.37;6.77;;;17.60;99.90;;;;;;4975745;28;20177;-70
2023/10/09 07:38:14;;;;;;;11.20;7.47;;;18.10;99.90;;;;;;4975486;28;20475;-70
2023/10/09 07:49:09;;;;;;;11.07;7.83;;;18.30;99.90;;;;;;4956551;29;20709;-70
2023/10/09 07:51:38;;;;;;;10.93;7.70;;;18.30;99.90;;;;;;4956204;28;20216;-70
2023/10/09 07:54:07;;;;;;;15.03;7.50;;;18.30;99.90;;;;;;4956092;28;20669;-71
2023/10/09 07:56:45;;;;;;;17.43;8.07;;;18.30;99.90;;;;;;4964646;28;20732;-70
2023/10/09 07:59:17;;;;;;;11.83;8.47;;;18.30;99.90;;;;;;4975295;28;20236;-70
2023/10/09 08:01:52;;;;;;;10.87;7.60;;;18.20;99.90;;;;;;4975065;28;20209;-70
2023/10/09 08:04:37;;;;;;;11.67;8.17;;;18.20;99.90;;;;;;4975162;28;20668;-71
2023/10/09 08:07:25;;;;;;;12.30;7.83;;;18.20;99.90;;;;;;4975085;28;20161;-71
2023/10/09 08:11:38;;;;;;;11.73;7.87;;;18.20;99.90;;;;;;4974845;28;20201;-71
2023/10/09 08:18:03;;;;;;;12.37;7.57;;;18.60;99.90;;;;;;4975088;28;20530;-70
2023/10/09 08:20:51;;;;;;;10.83;7.27;;;18.70;99.90;;;;;;4974578;28;20285;-71
2023/10/09 08:23:33;;;;;;;12.93;8.00;;;18.80;99.90;;;;;;4974712;28;20208;-70
2023/10/09 08:26:14;;;;;;;11.33;7.50;;;18.90;99.90;;;;;;4975039;28;20256;-72
2023/10/09 08:28:45;;;;;;;16.27;7.97;;;19.00;99.90;;;;;;4974134;28;20264;-71
2023/10/09 08:31:34;;;;;;;9.00;7.43;;;19.10;99.90;;;;;;4974993;28;20190;-70
2023/10/09 08:34:01;;;;;;;13.17;8.50;;;19.10;99.90;;;;;;4974632;28;20606;-71
2023/10/09 08:36:36;;;;;;;13.80;8.93;;;19.10;99.90;;;;;;4974518;28;20641;-71
2023/10/09 08:39:16;;;;;;;9.17;7.67;;;19.20;99.90;;;;;;4974378;28;20232;-71
2023/10/09 08:41:42;;;;;;;11.20;7.83;;;19.20;99.90;;;;;;4974324;28;20197;-70
2023/10/09 08:44:12;;;;;;;12.27;7.73;;;19.20;99.90;;;;;;4974462;28;20196;-71
2023/10/09 08:46:39;;;;;;;11.57;7.57;;;19.30;99.90;;;;;;4972926;28;20542;-71
2023/10/09 08:49:08;;;;;;;12.10;7.60;;;19.20;99.90;;;;;;4974456;28;20592;-70
2023/10/09 08:51:35;;;;;;;13.63;8.20;;;19.30;99.90;;;;;;4973534;28;20244;-70
2023/10/09 08:54:01;;;;;;;11.10;7.37;;;19.50;99.90;;;;;;4973208;28;20602;-70
2023/10/09 08:56:26;;;;;;;9.67;6.87;;;19.60;99.90;;;;;;4974430;28;20173;-70
2023/10/09 08:58:54;;;;;;;11.40;6.73;;;19.70;99.90;;;;;;4973615;28;20173;-70
2023/10/09 09:01:21;;;;;;;12.03;7.30;;;19.80;99.90;;;;;;4974000;28;20662;-70
2023/10/09 09:03:48;;;;;;;11.40;7.07;;;19.90;99.90;;;;;;4973899;28;20185;-70
2023/10/09 09:06:14;;;;;;;10.67;6.90;;;20.00;99.90;;;;;;4973743;28;20185;-73
2023/10/09 09:08:40;;;;;;;9.43;7.13;;;20.10;99.90;;;;;;4974265;28;20172;-71
2023/10/09 09:11:14;;;;;;;11.00;7.67;;;20.20;99.90;;;;;;4974069;28;20197;-70
2023/10/09 09:14:03;;;;;;;9.27;6.53;;;20.20;99.90;;;;;;4973498;28;20582;-70
2023/10/09 09:16:29;;;;;;;9.83;6.40;;;20.20;99.90;;;;;;4974090;28;20205;-70
2023/10/09 09:19:17;;;;;;;14.93;7.80;;;20.30;99.90;;;;;;4974056;28;20271;-70
2023/10/09 09:21:49;;;;;;;11.77;6.90;;;20.50;99.90;;;;;;4973687;28;20263;-72
2023/10/09 09:24:30;;;;;;;11.27;7.77;;;20.70;99.90;;;;;;4973298;28;20657;-70
2023/10/09 09:27:00;;;;;;;12.87;7.03;;;20.90;99.90;;;;;;4973678;28;20170;-70
2023/10/09 09:29:38;;;;;;;11.07;7.03;;;21.00;99.90;;;;;;4973786;28;20604;-69
2023/10/09 09:32:20;;;;;;;11.17;7.47;;;21.00;99.90;;;;;;4973360;28;20185;-69
2023/10/09 09:34:51;;;;;;;10.27;7.03;;;21.10;99.90;;;;;;4953667;28;20198;-70
2023/10/09 09:37:28;;;;;;;9.50;6.60;;;21.00;99.90;;;;;;4968877;28;20547;-70
2023/10/09 09:39:57;;;;;;;12.57;7.80;;;21.00;99.90;;;;;;4953842;28;20202;-69
2023/10/09 09:42:27;;;;;;;9.57;6.53;;;21.00;99.90;;;;;;4953484;28;20204;-70
2023/10/09 09:44:55;;;;;;;11.57;7.10;;;21.00;99.90;;;;;;4953663;28;20174;-70
2023/10/09 09:47:26;;;;;;;7.87;7.07;;;21.10;99.90;;;;;;4959521;28;20197;-70
2023/10/09 09:50:11;;;;;;;16.30;6.82;;;21.20;99.90;;;;;;4972938;28;20182;-70
2023/10/09 09:52:40;;;;;;;8.38;6.28;;;21.40;99.90;;;;;;4972343;28;20523;-70
2023/10/09 09:55:17;;;;;;;9.63;6.65;;;21.70;99.90;;;;;;4972690;28;20546;-70
2023/10/09 09:57:51;;;;;;;10.57;6.50;;;21.90;99.90;;;;;;4972779;28;20192;-71
2023/10/09 10:00:42;;;;;;;8.40;5.35;;;22.20;99.90;;;;;;4972604;28;20292;-71
2023/10/09 10:03:19;;;;;;;9.38;5.78;;;22.30;99.90;;;;;;4972495;28;20197;-70
2023/10/09 10:05:48;;;;;;;8.18;4.95;;;22.50;99.90;;;;;;4972672;28;20554;-70
2023/10/09 10:08:19;;;;;;;7.35;5.47;;;22.70;99.90;;;;;;4972826;28;20181;-69
2023/10/09 10:10:58;;;;;;;8.15;5.60;;;23.00;99.90;;;;;;4972151;28;20198;-70
2023/10/09 10:13:41;;;;;;;8.30;5.03;;;23.30;99.90;;;;;;4972214;28;20645;-71
2023/10/09 10:19:06;;;;;;;10.20;5.93;;;23.80;99.90;;;;;;4972261;28;20521;-71
2023/10/09 10:21:37;;;;;;;9.55;6.25;;;23.50;99.90;;;;;;4972109;28;20284;-70
2023/10/09 10:24:06;;;;;;;9.18;5.88;;;23.50;99.90;;;;;;4972400;28;20223;-71
2023/10/09 10:26:35;;;;;;;10.63;6.07;;;23.60;99.90;;;;;;4972127;28;20305;-70
2023/10/09 10:29:23;;;;;;;7.43;5.38;;;23.80;99.90;;;;;;4972261;28;20204;-72
2023/10/09 10:32:08;;;;;;;8.80;4.93;;;23.90;99.90;;;;;;4972244;28;20260;-69
2023/10/09 10:34:55;;;;;;;6.82;5.90;;;23.90;99.90;;;;;;4971913;28;20712;-71
2023/10/09 10:37:37;;;;;;;11.50;5.47;;;23.90;99.90;;;;;;4971899;28;20201;-71
2023/10/09 10:40:14;;;;;;;7.10;5.40;;;23.80;99.90;;;;;;4971885;28;20197;-71
2023/10/09 10:43:09;;;;;;;7.95;5.15;;;23.80;99.90;;;;;;4971512;28;20681;-71
2023/10/09 10:45:37;;;;;;;10.05;5.43;;;23.70;99.90;;;;;;4972374;28;20170;-71
2023/10/09 10:48:09;;;;;;;7.25;5.15;;;23.50;99.90;;;;;;4972391;28;20173;-70
2023/10/09 10:50:35;;;;;;;9.43;5.93;;;23.30;99.90;;;;;;4972111;28;20665;-71
2023/10/09 10:53:14;;;;;;;6.78;5.35;;;23.10;99.90;;;;;;4972102;28;20177;-71
2023/10/09 10:55:56;;;;;;;10.18;4.88;;;23.10;99.90;;;;;;4971808;28;20177;-71
2023/10/09 10:58:25;;;;;;;6.85;4.50;;;22.90;99.90;;;;;;4972156;28;20256;-71
2023/10/09 11:03:35;;;;;;;8.30;4.93;;;22.80;99.90;;;;;;4971881;28;20166;-70
2023/10/09 11:06:15;;;;;;;7.70;4.45;;;22.80;99.90;;;;;;4972148;28;20212;-71
2023/10/09 11:08:54;;;;;;;5.78;4.57;;;23.00;99.90;;;;;;4972201;28;20177;-71
2023/10/09 11:11:20;;;;;;;7.40;4.88;;;23.20;99.90;;;;;;4972438;28;20202;-70
2023/10/09 11:13:54;;;;;;;10.95;4.93;;;23.10;99.90;;;;;;4972220;28;20277;-69
2023/10/09 11:16:39;;;;;;;8.02;4.53;;;23.00;99.90;;;;;;4972188;28;20170;-70
2023/10/09 11:19:13;;;;;;;12.50;5.78;;;23.10;99.90;;;;;;4972467;28;20182;-70
2023/10/09 11:21:43;;;;;;;6.80;4.95;;;23.30;99.90;;;;;;4971107;28;20200;-69
2023/10/09 11:24:24;;;;;;;8.48;4.32;;;23.40;99.90;;;;;;4975345;28;20181;-73
2023/10/09 11:26:56;;;;;;;8.68;5.00;;;23.40;99.90;;;;;;4975488;28;20180;-72
2023/10/09 11:29:28;;;;;;;7.38;4.85;;;23.40;99.90;;;;;;4975517;28;20169;-71
2023/10/09 11:32:22;;;;;;;7.88;5.38;;;23.50;99.90;;;;;;4975229;28;20272;-71
2023/10/09 11:35:08;;;;;;;8.35;5.40;;;23.50;99.90;;;;;;4974802;28;20589;-71
2023/10/09 11:37:42;;;;;;;15.00;5.75;;;23.50;99.90;;;;;;4974737;28;20185;-71
2023/10/09 11:40:47;;;;;;;8.13;5.35;;;23.60;99.90;;;;;;4975378;28;20194;-71
2023/10/09 11:43:13;;;;;;;9.43;5.30;;;23.60;99.90;;;;;;4974839;28;20209;-72
2023/10/09 11:45:39;;;;;;;9.88;5.95;;;23.50;99.90;;;;;;4975022;28;20173;-72
2023/10/09 11:49:15;;;;;;;7.32;5.18;;;23.50;99.90;;;;;;4974741;28;20270;-71
2023/10/09 11:51:18;;;;;;;8.27;4.95;;;23.50;99.90;;;;;;4974496;28;20225;-71
2023/10/09 11:53:55;;;;;;;9.45;5.32;;;23.40;99.90;;;;;;4974724;28;20196;-70
2023/10/09 11:56:26;;;;;;;9.82;5.53;;;23.40;99.90;;;;;;4975182;28;20173;-73
2023/10/09 11:58:53;;;;;;;10.25;5.47;;;23.30;99.90;;;;;;4974914;28;20169;-71
2023/10/09 12:01:22;;;;;;;8.75;6.03;;;23.10;99.90;;;;;;4974648;28;20570;-71
2023/10/09 12:03:52;;;;;;;7.15;5.75;;;23.10;99.90;;;;;;4974134;28;20166;-72
2023/10/09 12:06:19;;;;;;;10.30;5.75;;;23.00;99.90;;;;;;4975020;28;20173;-72
2023/10/09 12:08:49;;;;;;;8.93;5.80;;;23.00;99.90;;;;;;4974822;28;20219;-71
2023/10/09 12:11:22;;;;;;;10.75;5.78;;;22.90;99.90;;;;;;4974723;28;20255;-72
2023/10/09 12:13:48;;;;;;;8.20;5.85;;;22.90;99.90;;;;;;4974075;28;20216;-73
2023/10/09 12:16:15;;;;;;;10.10;5.57;;;23.00;99.90;;;;;;4974553;28;20194;-71
2023/10/09 12:18:42;;;;;;;10.27;5.80;;;23.10;99.90;;;;;;4974070;28;20229;-73
2023/10/09 12:21:08;;;;;;;10.77;5.72;;;23.10;99.90;;;;;;4975285;28;20700;-72
2023/10/09 12:23:37;;;;;;;9.68;6.00;;;22.90;99.90;;;;;;4973981;28;20197;-73
2023/10/09 12:26:04;;;;;;;8.52;6.00;;;22.90;99.90;;;;;;4974571;28;20169;-73
2023/10/09 12:28:32;;;;;;;9.65;5.78;;;23.00;99.90;;;;;;4972346;28;20174;-72
2023/10/09 12:31:01;;;;;;;9.25;5.70;;;23.30;99.90;;;;;;4974326;28;20189;-72
2023/10/09 12:33:28;;;;;;;12.20;6.22;;;23.40;99.90;;;;;;4972591;28;20216;-72
2023/10/09 12:36:01;;;;;;;14.35;6.78;;;23.50;99.90;;;;;;4974038;28;20192;-72
2023/10/09 12:38:34;;;;;;;11.02;6.72;;;23.40;99.90;;;;;;4974117;28;20161;-71
2023/10/09 12:41:25;;;;;;;9.68;6.28;;;23.30;99.90;;;;;;4974170;28;20189;-70
2023/10/09 12:43:52;;;;;;;12.05;5.72;;;23.20;99.90;;;;;;4973974;28;20173;-70
2023/10/09 12:46:22;;;;;;;9.30;6.05;;;23.30;99.90;;;;;;4973567;28;20547;-70
2023/10/09 12:48:48;;;;;;;11.45;6.65;;;23.20;99.90;;;;;;4972708;28;20192;-73
2023/10/09 12:51:18;;;;;;;11.60;6.90;;;23.10;99.90;;;;;;4973080;28;20194;-71
2023/10/09 12:53:44;;;;;;;11.48;7.40;;;23.00;99.90;;;;;;4971374;28;20185;-72
2023/10/09 12:56:11;;;;;;;7.47;6.28;;;23.10;99.90;;;;;;4973062;28;20183;-69
2023/10/09 12:58:51;;;;;;;10.98;6.65;;;23.00;99.90;;;;;;4972207;28;20169;-70
2023/10/09 13:01:20;;;;;;;12.27;6.63;;;22.90;99.90;;;;;;4972771;28;20288;-71
2023/10/09 13:03:49;;;;;;;11.15;6.85;;;22.80;99.90;;;;;;4972377;28;20240;-70
2023/10/09 13:06:15;;;;;;;11.57;6.25;;;22.90;99.90;;;;;;4972959;28;20624;-70
2023/10/09 13:08:42;;;;;;;12.45;6.53;;;22.80;99.90;;;;;;4972413;28;20184;-71
2023/10/09 13:11:16;;;;;;;9.77;6.00;;;22.70;99.90;;;;;;4972735;28;20244;-70
2023/10/09 13:13:43;;;;;;;13.10;6.50;;;22.70;99.90;;;;;;4972343;28;20176;-70
2023/10/09 13:16:23;;;;;;;8.55;6.00;;;22.60;99.90;;;;;;4972591;28;20265;-72
2023/10/09 13:18:50;;;;;;;12.50;6.03;;;22.60;99.90;;;;;;4972643;28;20255;-71
2023/10/09 13:21:23;;;;;;;9.02;5.70;;;22.50;99.90;;;;;;4972520;28;20209;-71
2023/10/09 13:23:50;;;;;;;8.70;6.38;;;22.60;99.90;;;;;;4972421;28;20585;-70
2023/10/09 13:26:17;;;;;;;9.77;5.82;;;22.50;99.90;;;;;;4972215;28;20166;-69
2023/10/09 13:28:47;;;;;;;6.43;5.75;;;22.50;99.90;;;;;;4972318;28;20269;-70
2023/10/09 13:31:14;;;;;;;9.70;6.18;;;22.50;99.90;;;;;;4972216;28;20198;-72
2023/10/09 13:33:43;;;;;;;14.43;6.13;;;22.40;99.90;;;;;;4972081;28;20173;-70
2023/10/09 13:36:19;;;;;;;8.07;5.90;;;22.30;99.90;;;;;;4972300;28;20248;-69
2023/10/09 13:38:48;;;;;;;9.98;6.35;;;22.30;99.90;;;;;;4972045;28;20181;-69
2023/10/09 13:41:14;;;;;;;13.48;5.72;;;22.20;99.90;;;;;;4972533;28;20310;-71
2023/10/09 13:43:40;;;;;;;8.25;5.70;;;22.10;99.90;;;;;;4971625;28;20188;-70
2023/10/09 13:46:08;;;;;;;7.57;6.00;;;22.10;99.90;;;;;;4934601;28;1112668;-70
2023/10/09 13:48:38;;;;;;;10.52;6.68;;;22.20;99.90;;;;;;4953627;28;20186;-71
2023/10/09 13:51:07;;;;;;;11.70;6.40;;;22.20;99.90;;;;;;4953694;28;20578;-70
2023/10/09 13:53:35;;;;;;;11.02;6.07;;;22.20;99.90;;;;;;4972276;28;20552;-71
2023/10/09 13:56:02;;;;;;;9.50;7.13;;;22.30;99.90;;;;;;4972406;28;20220;-70
2023/10/09 13:58:28;;;;;;;13.38;6.00;;;22.40;99.90;;;;;;4973068;28;20165;-70
2023/10/09 14:00:56;;;;;;;12.63;6.80;;;22.50;99.90;;;;;;4972360;28;20673;-70
2023/10/09 14:03:24;;;;;;;13.48;6.68;;;22.70;99.90;;;;;;4972539;28;20173;-71
2023/10/09 14:05:56;;;;;;;11.77;7.35;;;22.90;99.90;;;;;;4972465;28;20189;-70
2023/10/09 14:08:23;;;;;;;13.57;7.45;;;23.10;99.90;;;;;;4972590;28;20177;-71
2023/10/09 14:10:49;;;;;;;10.38;7.57;;;23.20;99.90;;;;;;4972534;28;20205;-71
2023/10/09 14:13:16;;;;;;;12.10;7.78;;;23.20;99.90;;;;;;4972141;28;20189;-71
2023/10/09 14:15:43;;;;;;;10.82;8.52;;;23.20;99.90;;;;;;4972601;28;20263;-70
2023/10/09 14:18:11;;;;;;;9.60;6.80;;;23.00;99.90;;;;;;4972605;28;20173;-69
2023/10/09 14:20:37;;;;;;;8.85;7.53;;;23.00;99.90;;;;;;4972484;28;20212;-70
2023/10/09 14:23:06;;;;;;;10.32;7.20;;;23.00;99.90;;;;;;4971004;28;20237;-70
2023/10/09 14:25:39;;;;;;;9.57;7.68;;;23.10;99.90;;;;;;4971955;28;20641;-69
2023/10/09 14:28:09;;;;;;;10.85;8.52;;;23.10;99.90;;;;;;4972234;28;20224;-69
2023/10/09 14:30:44;;;;;;;11.07;7.43;;;23.00;99.90;;;;;;4972314;28;20193;-71
2023/10/09 14:33:13;;;;;;;9.25;6.72;;;22.90;99.90;;;;;;4972229;28;20177;-71
2023/10/09 14:35:44;;;;;;;11.43;7.85;;;22.90;99.90;;;;;;4972432;28;20740;-71
2023/10/09 14:38:15;;;;;;;14.55;7.38;;;22.90;99.90;;;;;;4971762;28;20173;-71
2023/10/09 14:40:44;;;;;;;11.50;7.85;;;23.00;99.90;;;;;;4971913;28;20280;-69
2023/10/09 14:43:18;;;;;;;11.15;7.85;;;23.00;99.90;;;;;;4972010;28;20243;-71
2023/10/09 14:45:48;;;;;;;13.30;6.88;;;23.00;99.90;;;;;;4972157;28;20182;-70
2023/10/09 14:48:26;;;;;;;18.38;7.47;;;23.00;99.90;;;;;;4970984;28;20641;-70
2023/10/09 14:50:53;;;;;;;11.27;7.45;;;23.20;99.90;;;;;;4972065;28;20665;-71
2023/10/09 14:53:20;;;;;;;10.57;7.40;;;23.40;99.90;;;;;;4971998;28;20182;-71
2023/10/09 14:55:47;;;;;;;10.93;7.18;;;23.40;99.90;;;;;;4971859;28;20248;-71
2023/10/09 14:58:13;;;;;;;12.27;7.65;;;23.40;99.90;;;;;;4975738;28;20188;-69
2023/10/09 15:00:45;;;;;;;14.05;8.23;;;23.20;99.90;;;;;;4975831;28;20225;-70
2023/10/09 15:03:14;;;;;;;11.95;7.13;;;22.90;99.90;;;;;;4975565;28;20211;-72
2023/10/09 15:05:43;;;;;;;9.75;6.63;;;22.50;99.90;;;;;;4974580;28;20276;-71
2023/10/09 15:08:12;;;;;;;14.00;7.30;;;22.40;99.90;;;;;;4975674;28;20186;-72
2023/10/09 15:10:48;;;;;;;9.07;7.18;;;22.10;99.90;;;;;;4975721;28;20194;-71
2023/10/09 15:13:16;;;;;;;10.77;7.38;;;21.90;99.90;;;;;;4975563;28;20689;-71
2023/10/09 15:15:45;;;;;;;9.57;7.13;;;21.70;99.90;;;;;;4975743;28;20208;-71